Cape Saint Claire, Maryland
Current Conditions -  °F | °C
As of 8:54 AM on Friday 19 Dec 2014 (Local Time) from KNAK Reporting Station
Overcast Overcast  
Wind Chill: 31°   Ceiling: 3500
Heat Index: 36°   Visibility: 10mi
Dew Point: 24°   Wind: 6mph
Humidity: 62%   Direction: 290°WNW
Pressure: 30.15"   Gusts: NA
Location:  38.9915°N, 76.5325°W
Report Text: KNAK 191354Z AUTO 29005KT 10SM OVC035 02/M04 A3015 RMK AO2 SLP213 T00221044 $
Loading
Personal Weather Stations






























Interactive Weather Map New forecast layout! Learn more

10-Day Weather Forecast

Advertisements
Track Severe Weather on mobile